sensor_id;sensor_type;location;lat;lon;timestamp;temperature;humidity
22532;DHT22;11432;46.924;7.114;2023-07-09T00:01:49;20.50;99.90
22532;DHT22;11432;46.924;7.114;2023-07-09T00:04:16;20.50;99.90
22532;DHT22;11432;46.924;7.114;2023-07-09T00:06:43;20.40;99.90
22532;DHT22;11432;46.924;7.114;2023-07-09T00:09:17;20.40;99.90
22532;DHT22;11432;46.924;7.114;2023-07-09T00:11:43;20.40;99.90
22532;DHT22;11432;46.924;7.114;2023-07-09T00:14:10;20.40;99.90
22532;DHT22;11432;46.924;7.114;2023-07-09T00:16:37;20.40;99.90
22532;DHT22;11432;46.924;7.114;2023-07-09T00:19:04;20.40;99.90
22532;DHT22;11432;46.924;7.114;2023-07-09T00:21:30;20.40;99.90
22532;DHT22;11432;46.924;7.114;2023-07-09T00:24:00;20.40;99.90
22532;DHT22;11432;46.924;7.114;2023-07-09T00:26:31;20.40;99.90
22532;DHT22;11432;46.924;7.114;2023-07-09T00:28:58;20.40;99.90
22532;DHT22;11432;46.924;7.114;2023-07-09T00:31:24;20.40;99.90
22532;DHT22;11432;46.924;7.114;2023-07-09T00:33:50;20.30;99.90
22532;DHT22;11432;46.924;7.114;2023-07-09T00:38:49;20.30;99.90
22532;DHT22;11432;46.924;7.114;2023-07-09T00:41:22;20.30;99.90
22532;DHT22;11432;46.924;7.114;2023-07-09T00:43:49;20.30;99.90
22532;DHT22;11432;46.924;7.114;2023-07-09T00:51:46;20.40;51.70
22532;DHT22;11432;46.924;7.114;2023-07-09T00:54:25;20.30;6.40
22532;DHT22;11432;46.924;7.114;2023-07-09T00:56:59;20.20;20.80
22532;DHT22;11432;46.924;7.114;2023-07-09T00:59:27;20.10;10.30
22532;DHT22;11432;46.924;7.114;2023-07-09T01:01:55;20.00;3.40
22532;DHT22;11432;46.924;7.114;2023-07-09T01:04:22;20.00;55.40
22532;DHT22;11432;46.924;7.114;2023-07-09T01:06:51;20.20;1.00
22532;DHT22;11432;46.924;7.114;2023-07-09T01:09:17;20.20;1.00
22532;DHT22;11432;46.924;7.114;2023-07-09T01:11:43;20.10;1.00
22532;DHT22;11432;46.924;7.114;2023-07-09T01:14:13;20.10;1.00
22532;DHT22;11432;46.924;7.114;2023-07-09T01:16:49;20.10;1.00
22532;DHT22;11432;46.924;7.114;2023-07-09T01:19:23;20.10;1.00
22532;DHT22;11432;46.924;7.114;2023-07-09T01:21:54;20.00;1.00
22532;DHT22;11432;46.924;7.114;2023-07-09T01:24:49;20.00;1.00
22532;DHT22;11432;46.924;7.114;2023-07-09T01:27:17;20.00;1.00
22532;DHT22;11432;46.924;7.114;2023-07-09T01:29:43;19.80;1.00
22532;DHT22;11432;46.924;7.114;2023-07-09T01:32:15;19.70;1.00
22532;DHT22;11432;46.924;7.114;2023-07-09T01:34:42;19.70;99.90
22532;DHT22;11432;46.924;7.114;2023-07-09T01:37:08;19.80;27.80
22532;DHT22;11432;46.924;7.114;2023-07-09T01:39:33;19.80;24.30
22532;DHT22;11432;46.924;7.114;2023-07-09T01:42:01;19.80;24.40
22532;DHT22;11432;46.924;7.114;2023-07-09T01:44:27;19.80;95.20
22532;DHT22;11432;46.924;7.114;2023-07-09T01:46:54;19.80;14.70
22532;DHT22;11432;46.924;7.114;2023-07-09T01:49:20;19.90;1.60
22532;DHT22;11432;46.924;7.114;2023-07-09T01:51:47;19.80;14.90
22532;DHT22;11432;46.924;7.114;2023-07-09T01:54:14;19.60;25.30
22532;DHT22;11432;46.924;7.114;2023-07-09T01:56:42;19.50;97.40
22532;DHT22;11432;46.924;7.114;2023-07-09T01:59:07;19.50;91.70
22532;DHT22;11432;46.924;7.114;2023-07-09T02:01:36;19.50;99.90
22532;DHT22;11432;46.924;7.114;2023-07-09T02:04:03;19.50;99.90
22532;DHT22;11432;46.924;7.114;2023-07-09T02:06:29;19.50;37.20
22532;DHT22;11432;46.924;7.114;2023-07-09T02:08:57;19.50;99.90
22532;DHT22;11432;46.924;7.114;2023-07-09T02:11:24;19.40;90.40
22532;DHT22;11432;46.924;7.114;2023-07-09T02:13:49;19.30;99.90
22532;DHT22;11432;46.924;7.114;2023-07-09T02:16:15;19.20;99.90
22532;DHT22;11432;46.924;7.114;2023-07-09T02:18:41;19.20;99.90
22532;DHT22;11432;46.924;7.114;2023-07-09T02:21:06;19.30;99.90
22532;DHT22;11432;46.924;7.114;2023-07-09T02:23:32;19.20;99.90
22532;DHT22;11432;46.924;7.114;2023-07-09T02:25:57;19.30;99.90
22532;DHT22;11432;46.924;7.114;2023-07-09T02:28:23;19.20;26.10
22532;DHT22;11432;46.924;7.114;2023-07-09T02:30:49;19.20;99.90
22532;DHT22;11432;46.924;7.114;2023-07-09T02:33:14;19.20;99.90
22532;DHT22;11432;46.924;7.114;2023-07-09T02:35:40;19.10;30.00
22532;DHT22;11432;46.924;7.114;2023-07-09T02:38:05;19.10;79.50
22532;DHT22;11432;46.924;7.114;2023-07-09T02:40:31;19.00;21.70
22532;DHT22;11432;46.924;7.114;2023-07-09T02:42:59;18.90;46.00
22532;DHT22;11432;46.924;7.114;2023-07-09T02:45:24;18.90;42.60
22532;DHT22;11432;46.924;7.114;2023-07-09T02:47:50;18.70;46.00
22532;DHT22;11432;46.924;7.114;2023-07-09T02:50:16;18.70;99.90
22532;DHT22;11432;46.924;7.114;2023-07-09T02:52:41;18.60;99.90
22532;DHT22;11432;46.924;7.114;2023-07-09T02:55:08;18.60;99.90
22532;DHT22;11432;46.924;7.114;2023-07-09T02:57:34;18.70;99.90
22532;DHT22;11432;46.924;7.114;2023-07-09T02:59:59;18.60;99.90
22532;DHT22;11432;46.924;7.114;2023-07-09T03:02:25;18.60;99.90
22532;DHT22;11432;46.924;7.114;2023-07-09T03:04:51;18.70;99.90
22532;DHT22;11432;46.924;7.114;2023-07-09T03:07:17;18.80;99.90
22532;DHT22;11432;46.924;7.114;2023-07-09T03:09:43;18.80;99.90
22532;DHT22;11432;46.924;7.114;2023-07-09T03:12:08;18.70;96.00
22532;DHT22;11432;46.924;7.114;2023-07-09T03:14:35;18.70;85.90
22532;DHT22;11432;46.924;7.114;2023-07-09T03:17:01;18.60;75.30
22532;DHT22;11432;46.924;7.114;2023-07-09T03:19:27;18.50;99.90
22532;DHT22;11432;46.924;7.114;2023-07-09T03:21:52;18.50;99.90
22532;DHT22;11432;46.924;7.114;2023-07-09T03:24:18;18.50;99.90
22532;DHT22;11432;46.924;7.114;2023-07-09T03:26:46;18.40;92.20
22532;DHT22;11432;46.924;7.114;2023-07-09T03:29:12;18.40;40.80
22532;DHT22;11432;46.924;7.114;2023-07-09T03:31:38;18.30;11.20
22532;DHT22;11432;46.924;7.114;2023-07-09T03:34:04;18.30;1.00
22532;DHT22;11432;46.924;7.114;2023-07-09T03:36:30;18.30;1.00
22532;DHT22;11432;46.924;7.114;2023-07-09T03:38:55;18.30;1.00
22532;DHT22;11432;46.924;7.114;2023-07-09T03:41:21;18.30;1.00
22532;DHT22;11432;46.924;7.114;2023-07-09T03:43:46;18.20;1.00
22532;DHT22;11432;46.924;7.114;2023-07-09T03:46:15;18.20;1.00
22532;DHT22;11432;46.924;7.114;2023-07-09T03:48:41;18.30;1.00
22532;DHT22;11432;46.924;7.114;2023-07-09T03:51:06;18.40;1.00
22532;DHT22;11432;46.924;7.114;2023-07-09T03:53:32;18.40;1.00
22532;DHT22;11432;46.924;7.114;2023-07-09T03:55:57;18.60;1.00
22532;DHT22;11432;46.924;7.114;2023-07-09T03:58:25;18.60;1.00
22532;DHT22;11432;46.924;7.114;2023-07-09T04:00:51;18.60;1.00
22532;DHT22;11432;46.924;7.114;2023-07-09T04:03:16;18.50;1.00
22532;DHT22;11432;46.924;7.114;2023-07-09T04:05:42;18.50;1.00
22532;DHT22;11432;46.924;7.114;2023-07-09T04:08:08;18.60;1.00
22532;DHT22;11432;46.924;7.114;2023-07-09T04:10:33;18.70;1.00
22532;DHT22;11432;46.924;7.114;2023-07-09T04:12:59;18.60;1.00
22532;DHT22;11432;46.924;7.114;2023-07-09T04:15:26;18.60;1.00
22532;DHT22;11432;46.924;7.114;2023-07-09T04:17:51;18.60;1.00
22532;DHT22;11432;46.924;7.114;2023-07-09T04:20:17;18.70;1.00
22532;DHT22;11432;46.924;7.114;2023-07-09T04:22:43;18.80;1.00
22532;DHT22;11432;46.924;7.114;2023-07-09T04:25:10;18.70;1.00
22532;DHT22;11432;46.924;7.114;2023-07-09T04:27:36;18.70;1.00
22532;DHT22;11432;46.924;7.114;2023-07-09T04:30:02;18.60;1.00
22532;DHT22;11432;46.924;7.114;2023-07-09T04:32:30;18.60;1.00
22532;DHT22;11432;46.924;7.114;2023-07-09T04:34:56;18.50;1.00
22532;DHT22;11432;46.924;7.114;2023-07-09T04:37:22;18.50;1.00
22532;DHT22;11432;46.924;7.114;2023-07-09T04:39:48;18.60;1.00
22532;DHT22;11432;46.924;7.114;2023-07-09T04:42:15;18.60;1.00
22532;DHT22;11432;46.924;7.114;2023-07-09T04:44:41;18.70;1.00
22532;DHT22;11432;46.924;7.114;2023-07-09T04:47:07;18.70;1.00
22532;DHT22;11432;46.924;7.114;2023-07-09T04:49:33;18.80;1.00
22532;DHT22;11432;46.924;7.114;2023-07-09T04:51:59;18.90;1.00
22532;DHT22;11432;46.924;7.114;2023-07-09T04:54:26;19.00;1.00
22532;DHT22;11432;46.924;7.114;2023-07-09T04:56:52;19.00;1.00
22532;DHT22;11432;46.924;7.114;2023-07-09T04:59:18;19.10;1.00
22532;DHT22;11432;46.924;7.114;2023-07-09T05:01:44;19.00;1.00
22532;DHT22;11432;46.924;7.114;2023-07-09T05:04:10;19.00;1.00
22532;DHT22;11432;46.924;7.114;2023-07-09T05:06:35;19.10;1.00
22532;DHT22;11432;46.924;7.114;2023-07-09T05:09:01;19.20;1.00
22532;DHT22;11432;46.924;7.114;2023-07-09T05:11:26;19.10;1.00
22532;DHT22;11432;46.924;7.114;2023-07-09T05:13:52;19.30;1.00
22532;DHT22;11432;46.924;7.114;2023-07-09T05:16:18;19.30;1.00
22532;DHT22;11432;46.924;7.114;2023-07-09T05:18:45;19.40;1.00
22532;DHT22;11432;46.924;7.114;2023-07-09T05:21:11;19.40;1.00
22532;DHT22;11432;46.924;7.114;2023-07-09T05:23:36;19.50;1.00
22532;DHT22;11432;46.924;7.114;2023-07-09T05:26:03;19.50;1.00
22532;DHT22;11432;46.924;7.114;2023-07-09T05:28:30;19.50;1.00
22532;DHT22;11432;46.924;7.114;2023-07-09T05:30:56;19.40;99.90
22532;DHT22;11432;46.924;7.114;2023-07-09T05:33:21;19.40;99.90
22532;DHT22;11432;46.924;7.114;2023-07-09T05:35:47;19.40;99.90
22532;DHT22;11432;46.924;7.114;2023-07-09T05:38:13;19.50;99.90
22532;DHT22;11432;46.924;7.114;2023-07-09T05:40:40;19.60;1.00
22532;DHT22;11432;46.924;7.114;2023-07-09T05:43:05;19.70;99.90
22532;DHT22;11432;46.924;7.114;2023-07-09T05:45:31;19.80;99.90
22532;DHT22;11432;46.924;7.114;2023-07-09T05:48:01;19.90;99.90
22532;DHT22;11432;46.924;7.114;2023-07-09T05:50:28;20.00;1.00
22532;DHT22;11432;46.924;7.114;2023-07-09T05:52:53;20.10;1.00
22532;DHT22;11432;46.924;7.114;2023-07-09T05:55:19;20.10;1.00
22532;DHT22;11432;46.924;7.114;2023-07-09T05:57:45;20.20;1.00
22532;DHT22;11432;46.924;7.114;2023-07-09T06:00:11;20.30;1.00
22532;DHT22;11432;46.924;7.114;2023-07-09T06:02:37;20.40;1.00
22532;DHT22;11432;46.924;7.114;2023-07-09T06:05:05;20.40;1.00
22532;DHT22;11432;46.924;7.114;2023-07-09T06:07:34;20.60;1.00
22532;DHT22;11432;46.924;7.114;2023-07-09T06:10:00;20.60;1.00
22532;DHT22;11432;46.924;7.114;2023-07-09T06:12:26;20.70;1.00
22532;DHT22;11432;46.924;7.114;2023-07-09T06:14:51;20.80;1.00
22532;DHT22;11432;46.924;7.114;2023-07-09T06:17:17;20.80;1.00
22532;DHT22;11432;46.924;7.114;2023-07-09T06:19:43;20.90;1.00
22532;DHT22;11432;46.924;7.114;2023-07-09T06:22:08;21.00;1.00
22532;DHT22;11432;46.924;7.114;2023-07-09T06:24:34;21.10;1.00
22532;DHT22;11432;46.924;7.114;2023-07-09T06:27:00;21.20;1.00
22532;DHT22;11432;46.924;7.114;2023-07-09T06:29:25;21.20;99.90
22532;DHT22;11432;46.924;7.114;2023-07-09T06:31:51;21.20;29.00
22532;DHT22;11432;46.924;7.114;2023-07-09T06:34:17;21.30;99.90
22532;DHT22;11432;46.924;7.114;2023-07-09T06:36:42;21.30;1.00
22532;DHT22;11432;46.924;7.114;2023-07-09T06:39:08;21.20;99.90
22532;DHT22;11432;46.924;7.114;2023-07-09T06:41:35;21.20;99.90
22532;DHT22;11432;46.924;7.114;2023-07-09T06:44:07;21.30;99.90
22532;DHT22;11432;46.924;7.114;2023-07-09T06:46:33;21.20;99.90
22532;DHT22;11432;46.924;7.114;2023-07-09T06:48:59;21.30;79.00
22532;DHT22;11432;46.924;7.114;2023-07-09T06:51:25;21.30;1.00
22532;DHT22;11432;46.924;7.114;2023-07-09T06:53:51;21.30;99.90
22532;DHT22;11432;46.924;7.114;2023-07-09T06:56:17;21.40;1.00
22532;DHT22;11432;46.924;7.114;2023-07-09T06:58:43;21.40;1.00
22532;DHT22;11432;46.924;7.114;2023-07-09T07:01:09;21.50;1.00
22532;DHT22;11432;46.924;7.114;2023-07-09T07:03:36;21.50;1.00
22532;DHT22;11432;46.924;7.114;2023-07-09T07:06:02;21.70;1.00
22532;DHT22;11432;46.924;7.114;2023-07-09T07:08:28;21.80;1.00
22532;DHT22;11432;46.924;7.114;2023-07-09T07:10:57;21.90;1.00
22532;DHT22;11432;46.924;7.114;2023-07-09T07:15:56;22.00;1.00
22532;DHT22;11432;46.924;7.114;2023-07-09T07:18:22;22.00;1.00
22532;DHT22;11432;46.924;7.114;2023-07-09T07:20:49;22.00;99.90
22532;DHT22;11432;46.924;7.114;2023-07-09T07:23:14;22.10;1.00
22532;DHT22;11432;46.924;7.114;2023-07-09T07:25:41;22.30;99.90
22532;DHT22;11432;46.924;7.114;2023-07-09T07:28:07;22.20;44.50
22532;DHT22;11432;46.924;7.114;2023-07-09T07:30:32;22.30;99.90
22532;DHT22;11432;46.924;7.114;2023-07-09T07:32:58;22.40;71.70
22532;DHT22;11432;46.924;7.114;2023-07-09T07:35:24;22.60;99.90
22532;DHT22;11432;46.924;7.114;2023-07-09T07:37:49;22.60;1.00
22532;DHT22;11432;46.924;7.114;2023-07-09T07:40:25;22.70;1.00
22532;DHT22;11432;46.924;7.114;2023-07-09T07:42:51;22.60;1.00
22532;DHT22;11432;46.924;7.114;2023-07-09T07:45:17;22.70;99.90
22532;DHT22;11432;46.924;7.114;2023-07-09T07:47:42;22.70;76.50
22532;DHT22;11432;46.924;7.114;2023-07-09T07:50:09;22.80;1.00
22532;DHT22;11432;46.924;7.114;2023-07-09T07:52:35;22.80;1.00
22532;DHT22;11432;46.924;7.114;2023-07-09T07:55:07;22.80;1.00
22532;DHT22;11432;46.924;7.114;2023-07-09T07:57:33;23.00;99.90
22532;DHT22;11432;46.924;7.114;2023-07-09T07:59:59;23.10;1.00
22532;DHT22;11432;46.924;7.114;2023-07-09T08:02:25;23.10;1.00
22532;DHT22;11432;46.924;7.114;2023-07-09T08:04:51;23.10;1.00
22532;DHT22;11432;46.924;7.114;2023-07-09T08:07:18;23.30;1.00
22532;DHT22;11432;46.924;7.114;2023-07-09T08:09:44;23.40;1.00
22532;DHT22;11432;46.924;7.114;2023-07-09T08:12:10;23.60;1.00
22532;DHT22;11432;46.924;7.114;2023-07-09T08:14:39;23.70;99.90
22532;DHT22;11432;46.924;7.114;2023-07-09T08:17:05;23.90;99.90
22532;DHT22;11432;46.924;7.114;2023-07-09T08:19:31;23.90;1.00
22532;DHT22;11432;46.924;7.114;2023-07-09T08:21:57;23.90;1.00
22532;DHT22;11432;46.924;7.114;2023-07-09T08:24:23;24.00;99.90
22532;DHT22;11432;46.924;7.114;2023-07-09T08:26:49;24.00;99.90
22532;DHT22;11432;46.924;7.114;2023-07-09T08:29:16;24.00;99.90
22532;DHT22;11432;46.924;7.114;2023-07-09T08:31:42;24.00;77.10
22532;DHT22;11432;46.924;7.114;2023-07-09T08:34:08;24.00;12.80
22532;DHT22;11432;46.924;7.114;2023-07-09T08:36:33;24.20;99.90
22532;DHT22;11432;46.924;7.114;2023-07-09T08:39:02;24.20;99.90
22532;DHT22;11432;46.924;7.114;2023-07-09T08:41:58;24.30;99.90
22532;DHT22;11432;46.924;7.114;2023-07-09T08:50:16;24.60;1.00
22532;DHT22;11432;46.924;7.114;2023-07-09T08:52:45;24.70;99.90
22532;DHT22;11432;46.924;7.114;2023-07-09T08:55:19;24.80;99.90
22532;DHT22;11432;46.924;7.114;2023-07-09T08:57:47;24.90;1.00
22532;DHT22;11432;46.924;7.114;2023-07-09T09:00:31;24.90;99.90
22532;DHT22;11432;46.924;7.114;2023-07-09T09:03:03;24.70;99.90
22532;DHT22;11432;46.924;7.114;2023-07-09T09:05:33;24.70;99.90
22532;DHT22;11432;46.924;7.114;2023-07-09T09:08:35;24.70;99.90
22532;DHT22;11432;46.924;7.114;2023-07-09T09:11:23;24.70;99.90
22532;DHT22;11432;46.924;7.114;2023-07-09T09:13:53;24.70;1.00
22532;DHT22;11432;46.924;7.114;2023-07-09T09:16:27;24.80;1.00
22532;DHT22;11432;46.924;7.114;2023-07-09T09:18:57;24.90;99.90
22532;DHT22;11432;46.924;7.114;2023-07-09T09:21:29;25.00;1.00
22532;DHT22;11432;46.924;7.114;2023-07-09T09:23:58;25.20;33.60
22532;DHT22;11432;46.924;7.114;2023-07-09T09:26:31;25.40;1.00
22532;DHT22;11432;46.924;7.114;2023-07-09T09:28:57;25.50;1.00
22532;DHT22;11432;46.924;7.114;2023-07-09T09:31:26;25.70;69.50
22532;DHT22;11432;46.924;7.114;2023-07-09T09:33:52;25.90;99.90
22532;DHT22;11432;46.924;7.114;2023-07-09T09:36:24;25.90;99.90
22532;DHT22;11432;46.924;7.114;2023-07-09T09:38:50;26.10;99.90
22532;DHT22;11432;46.924;7.114;2023-07-09T09:41:22;26.10;1.00
22532;DHT22;11432;46.924;7.114;2023-07-09T09:43:52;26.40;1.00
22532;DHT22;11432;46.924;7.114;2023-07-09T09:46:24;26.50;1.00
22532;DHT22;11432;46.924;7.114;2023-07-09T09:48:54;26.70;1.00
22532;DHT22;11432;46.924;7.114;2023-07-09T09:51:20;26.90;1.00
22532;DHT22;11432;46.924;7.114;2023-07-09T09:53:50;26.70;99.90
22532;DHT22;11432;46.924;7.114;2023-07-09T09:56:29;26.70;1.00
22532;DHT22;11432;46.924;7.114;2023-07-09T09:58:56;26.70;4.90
22532;DHT22;11432;46.924;7.114;2023-07-09T10:01:27;26.90;1.00
22532;DHT22;11432;46.924;7.114;2023-07-09T10:03:56;27.30;1.00
22532;DHT22;11432;46.924;7.114;2023-07-09T10:06:35;27.50;99.90
22532;DHT22;11432;46.924;7.114;2023-07-09T10:11:29;27.90;93.80
22532;DHT22;11432;46.924;7.114;2023-07-09T10:14:02;28.00;99.90
22532;DHT22;11432;46.924;7.114;2023-07-09T10:16:36;27.80;1.00
22532;DHT22;11432;46.924;7.114;2023-07-09T10:19:29;27.90;99.90
22532;DHT22;11432;46.924;7.114;2023-07-09T10:23:02;28.00;99.90
22532;DHT22;11432;46.924;7.114;2023-07-09T10:28:00;28.20;1.00
22532;DHT22;11432;46.924;7.114;2023-07-09T10:30:40;28.20;78.80
22532;DHT22;11432;46.924;7.114;2023-07-09T10:40:55;28.70;1.00
22532;DHT22;11432;46.924;7.114;2023-07-09T10:43:31;28.90;99.90
22532;DHT22;11432;46.924;7.114;2023-07-09T10:46:03;29.10;1.00
22532;DHT22;11432;46.924;7.114;2023-07-09T10:48:36;29.20;6.20
22532;DHT22;11432;46.924;7.114;2023-07-09T10:51:02;29.00;99.90
22532;DHT22;11432;46.924;7.114;2023-07-09T10:53:39;28.80;1.00
22532;DHT22;11432;46.924;7.114;2023-07-09T10:56:24;29.00;99.90
22532;DHT22;11432;46.924;7.114;2023-07-09T10:59:09;29.20;99.90
22532;DHT22;11432;46.924;7.114;2023-07-09T11:01:41;29.40;1.00
22532;DHT22;11432;46.924;7.114;2023-07-09T11:04:24;29.70;99.90
22532;DHT22;11432;46.924;7.114;2023-07-09T11:06:58;30.00;99.90
22532;DHT22;11432;46.924;7.114;2023-07-09T11:09:33;29.90;99.90
22532;DHT22;11432;46.924;7.114;2023-07-09T11:12:09;29.70;99.90
22532;DHT22;11432;46.924;7.114;2023-07-09T11:14:45;29.70;99.90
22532;DHT22;11432;46.924;7.114;2023-07-09T11:17:15;29.80;52.50
22532;DHT22;11432;46.924;7.114;2023-07-09T11:19:41;30.00;99.90
22532;DHT22;11432;46.924;7.114;2023-07-09T11:22:19;30.00;1.00
22532;DHT22;11432;46.924;7.114;2023-07-09T11:24:51;30.10;1.00
22532;DHT22;11432;46.924;7.114;2023-07-09T11:27:25;30.30;99.90
22532;DHT22;11432;46.924;7.114;2023-07-09T11:30:04;30.30;99.90
22532;DHT22;11432;46.924;7.114;2023-07-09T11:32:46;30.30;1.00
22532;DHT22;11432;46.924;7.114;2023-07-09T11:35:21;30.40;86.30
22532;DHT22;11432;46.924;7.114;2023-07-09T11:37:47;30.70;1.00
22532;DHT22;11432;46.924;7.114;2023-07-09T11:40:14;31.00;99.90
22532;DHT22;11432;46.924;7.114;2023-07-09T11:43:24;31.00;99.90
22532;DHT22;11432;46.924;7.114;2023-07-09T11:45:51;31.10;99.90
22532;DHT22;11432;46.924;7.114;2023-07-09T11:48:26;31.20;99.90
22532;DHT22;11432;46.924;7.114;2023-07-09T11:50:54;31.20;99.90
22532;DHT22;11432;46.924;7.114;2023-07-09T11:53:44;31.30;1.00
22532;DHT22;11432;46.924;7.114;2023-07-09T11:56:11;31.40;1.00
22532;DHT22;11432;46.924;7.114;2023-07-09T11:58:50;31.30;1.00
22532;DHT22;11432;46.924;7.114;2023-07-09T12:01:19;31.40;1.00
22532;DHT22;11432;46.924;7.114;2023-07-09T12:03:46;31.30;1.00
22532;DHT22;11432;46.924;7.114;2023-07-09T12:06:18;31.30;99.90
22532;DHT22;11432;46.924;7.114;2023-07-09T12:08:46;31.40;99.90
22532;DHT22;11432;46.924;7.114;2023-07-09T12:11:24;31.50;99.90
22532;DHT22;11432;46.924;7.114;2023-07-09T12:13:51;31.50;50.80
22532;DHT22;11432;46.924;7.114;2023-07-09T12:16:29;31.60;99.90
22532;DHT22;11432;46.924;7.114;2023-07-09T12:18:55;31.70;99.90
22532;DHT22;11432;46.924;7.114;2023-07-09T12:21:23;31.90;99.90
22532;DHT22;11432;46.924;7.114;2023-07-09T12:23:50;32.00;99.90
22532;DHT22;11432;46.924;7.114;2023-07-09T12:26:18;32.00;99.90
22532;DHT22;11432;46.924;7.114;2023-07-09T12:28:50;32.20;1.00
22532;DHT22;11432;46.924;7.114;2023-07-09T12:31:16;32.10;1.00
22532;DHT22;11432;46.924;7.114;2023-07-09T12:33:49;32.50;1.00
22532;DHT22;11432;46.924;7.114;2023-07-09T12:36:17;32.50;30.50
22532;DHT22;11432;46.924;7.114;2023-07-09T12:38:48;32.40;1.00
22532;DHT22;11432;46.924;7.114;2023-07-09T12:41:26;32.70;1.00
22532;DHT22;11432;46.924;7.114;2023-07-09T12:43:54;32.90;99.90
22532;DHT22;11432;46.924;7.114;2023-07-09T12:46:21;32.90;1.00
22532;DHT22;11432;46.924;7.114;2023-07-09T12:48:48;32.80;1.00
22532;DHT22;11432;46.924;7.114;2023-07-09T12:51:20;33.00;1.00
22532;DHT22;11432;46.924;7.114;2023-07-09T12:53:46;33.30;1.00
22532;DHT22;11432;46.924;7.114;2023-07-09T12:56:13;33.60;1.00
22532;DHT22;11432;46.924;7.114;2023-07-09T12:58:40;33.90;1.00
22532;DHT22;11432;46.924;7.114;2023-07-09T13:01:11;34.40;1.00
22532;DHT22;11432;46.924;7.114;2023-07-09T13:03:39;34.50;93.90
22532;DHT22;11432;46.924;7.114;2023-07-09T13:06:34;34.60;49.70
22532;DHT22;11432;46.924;7.114;2023-07-09T13:09:01;35.00;77.00
22532;DHT22;11432;46.924;7.114;2023-07-09T13:11:34;35.50;1.00
22532;DHT22;11432;46.924;7.114;2023-07-09T13:14:05;35.80;1.00
22532;DHT22;11432;46.924;7.114;2023-07-09T13:16:38;36.00;99.90
22532;DHT22;11432;46.924;7.114;2023-07-09T13:19:05;36.10;1.00
22532;DHT22;11432;46.924;7.114;2023-07-09T13:21:31;36.10;1.00
22532;DHT22;11432;46.924;7.114;2023-07-09T13:23:56;36.00;1.00
22532;DHT22;11432;46.924;7.114;2023-07-09T13:26:22;36.20;99.90
22532;DHT22;11432;46.924;7.114;2023-07-09T13:28:48;36.00;1.00
22532;DHT22;11432;46.924;7.114;2023-07-09T13:31:17;35.90;1.00
22532;DHT22;11432;46.924;7.114;2023-07-09T13:33:50;36.30;99.90
22532;DHT22;11432;46.924;7.114;2023-07-09T13:36:15;35.20;1.00
22532;DHT22;11432;46.924;7.114;2023-07-09T13:38:41;34.00;99.90
22532;DHT22;11432;46.924;7.114;2023-07-09T13:41:13;33.00;1.00
22532;DHT22;11432;46.924;7.114;2023-07-09T13:43:42;32.60;1.00
22532;DHT22;11432;46.924;7.114;2023-07-09T13:46:09;32.20;1.00
22532;DHT22;11432;46.924;7.114;2023-07-09T13:48:36;31.90;1.00
22532;DHT22;11432;46.924;7.114;2023-07-09T13:53:38;31.60;99.90
22532;DHT22;11432;46.924;7.114;2023-07-09T13:56:04;31.40;99.90
22532;DHT22;11432;46.924;7.114;2023-07-09T13:58:30;31.20;1.00
22532;DHT22;11432;46.924;7.114;2023-07-09T14:00:58;31.00;1.00
22532;DHT22;11432;46.924;7.114;2023-07-09T14:03:32;31.00;57.60
22532;DHT22;11432;46.924;7.114;2023-07-09T14:05:58;30.80;1.00
22532;DHT22;11432;46.924;7.114;2023-07-09T14:08:24;30.70;1.00
22532;DHT22;11432;46.924;7.114;2023-07-09T14:10:49;30.70;99.90
22532;DHT22;11432;46.924;7.114;2023-07-09T14:13:17;30.60;59.70
22532;DHT22;11432;46.924;7.114;2023-07-09T14:15:43;30.60;92.70
22532;DHT22;11432;46.924;7.114;2023-07-09T14:18:27;30.40;21.80
22532;DHT22;11432;46.924;7.114;2023-07-09T14:20:52;30.30;1.00
22532;DHT22;11432;46.924;7.114;2023-07-09T14:23:19;30.20;1.00
22532;DHT22;11432;46.924;7.114;2023-07-09T14:25:45;30.10;1.00
22532;DHT22;11432;46.924;7.114;2023-07-09T14:28:13;30.00;1.00
22532;DHT22;11432;46.924;7.114;2023-07-09T14:30:39;29.90;1.00
22532;DHT22;11432;46.924;7.114;2023-07-09T14:33:16;29.80;99.90
22532;DHT22;11432;46.924;7.114;2023-07-09T14:35:42;29.70;1.00
22532;DHT22;11432;46.924;7.114;2023-07-09T14:38:18;29.70;1.00
22532;DHT22;11432;46.924;7.114;2023-07-09T14:40:49;29.60;1.00
22532;DHT22;11432;46.924;7.114;2023-07-09T14:43:15;29.60;1.00
22532;DHT22;11432;46.924;7.114;2023-07-09T14:45:42;29.40;1.00
22532;DHT22;11432;46.924;7.114;2023-07-09T14:48:18;29.50;1.00
22532;DHT22;11432;46.924;7.114;2023-07-09T14:50:45;30.40;1.00
22532;DHT22;11432;46.924;7.114;2023-07-09T14:53:25;31.40;1.00
22532;DHT22;11432;46.924;7.114;2023-07-09T14:55:52;32.20;1.00
22532;DHT22;11432;46.924;7.114;2023-07-09T14:58:19;33.30;1.00
22532;DHT22;11432;46.924;7.114;2023-07-09T15:00:46;34.40;1.00
22532;DHT22;11432;46.924;7.114;2023-07-09T15:03:21;35.30;98.40
22532;DHT22;11432;46.924;7.114;2023-07-09T15:05:47;35.80;1.00
22532;DHT22;11432;46.924;7.114;2023-07-09T15:08:15;35.90;1.00
22532;DHT22;11432;46.924;7.114;2023-07-09T15:10:41;35.50;1.00
22532;DHT22;11432;46.924;7.114;2023-07-09T15:13:19;35.90;1.00
22532;DHT22;11432;46.924;7.114;2023-07-09T15:15:45;35.90;1.00
22532;DHT22;11432;46.924;7.114;2023-07-09T15:18:14;36.40;99.90
22532;DHT22;11432;46.924;7.114;2023-07-09T15:20:43;36.70;1.00
22532;DHT22;11432;46.924;7.114;2023-07-09T15:23:11;36.70;1.00
22532;DHT22;11432;46.924;7.114;2023-07-09T15:25:37;36.90;1.00
22532;DHT22;11432;46.924;7.114;2023-07-09T15:28:03;36.80;99.90
22532;DHT22;11432;46.924;7.114;2023-07-09T15:30:30;36.70;1.00
22532;DHT22;11432;46.924;7.114;2023-07-09T15:32:58;36.70;1.00
22532;DHT22;11432;46.924;7.114;2023-07-09T15:35:32;36.30;1.00
22532;DHT22;11432;46.924;7.114;2023-07-09T15:37:58;35.60;1.00
22532;DHT22;11432;46.924;7.114;2023-07-09T15:40:27;35.20;1.00
22532;DHT22;11432;46.924;7.114;2023-07-09T15:43:06;36.20;99.90
22532;DHT22;11432;46.924;7.114;2023-07-09T15:45:37;36.50;1.00
22532;DHT22;11432;46.924;7.114;2023-07-09T15:48:05;36.70;1.00
22532;DHT22;11432;46.924;7.114;2023-07-09T15:50:32;36.20;1.00
22532;DHT22;11432;46.924;7.114;2023-07-09T15:52:59;36.40;1.00
22532;DHT22;11432;46.924;7.114;2023-07-09T15:55:26;36.80;1.00
22532;DHT22;11432;46.924;7.114;2023-07-09T15:57:54;36.70;1.00
22532;DHT22;11432;46.924;7.114;2023-07-09T16:00:21;35.60;1.00
22532;DHT22;11432;46.924;7.114;2023-07-09T16:02:48;34.00;99.90
22532;DHT22;11432;46.924;7.114;2023-07-09T16:05:21;33.10;99.90
22532;DHT22;11432;46.924;7.114;2023-07-09T16:07:49;32.60;99.90
22532;DHT22;11432;46.924;7.114;2023-07-09T16:10:15;32.30;99.90
22532;DHT22;11432;46.924;7.114;2023-07-09T16:12:40;32.30;99.90
22532;DHT22;11432;46.924;7.114;2023-07-09T16:15:11;34.10;99.90
22532;DHT22;11432;46.924;7.114;2023-07-09T16:17:37;35.20;99.90
22532;DHT22;11432;46.924;7.114;2023-07-09T16:20:03;34.60;99.90
22532;DHT22;11432;46.924;7.114;2023-07-09T16:22:31;34.10;99.90